Time;durP1;ratioP1;P1;durP2;ratioP2;P2;SDS_P1;SDS_P2;PMS_P1;PMS_P2;Temp;Humidity;BMP_temperature;BMP_pressure;BME280_temperature;BME280_humidity;BME280_pressure;Samples;Min_cycle;Max_cycle;Signal;HPM_P1;HPM_P2
2023/12/23 00:04:27;;;;;;;0.63;0.20;;;;;;;;;;21033107;28;20221;-83
2023/12/23 00:14:29;;;;;;;1.57;0.47;;;;;;;;;;20979988;28;20228;-81
2023/12/23 00:24:31;;;;;;;0.53;0.43;;;;;;;;;;20988018;28;20274;-81
2023/12/23 00:34:34;;;;;;;1.20;0.20;;;;;;;;;;20972046;28;20766;-83
2023/12/23 00:44:36;;;;;;;1.83;0.37;;;;;;;;;;20998881;28;20236;-83
2023/12/23 00:54:37;;;;;;;0.77;0.27;;;;;;;;;;20971689;28;20213;-83
2023/12/23 01:04:39;;;;;;;0.63;0.27;;;;;;;;;;21012589;28;20217;-83
2023/12/23 01:14:41;;;;;;;1.63;0.60;;;;;;;;;;21035905;28;20260;-82
2023/12/23 01:24:43;;;;;;;0.30;0.30;;;;;;;;;;20996140;28;20220;-83
2023/12/23 01:34:45;;;;;;;1.13;0.50;;;;;;;;;;20972158;28;20229;-82
2023/12/23 01:44:47;;;;;;;0.97;0.40;;;;;;;;;;21020410;28;20274;-83
2023/12/23 01:54:48;;;;;;;0.83;0.40;;;;;;;;;;20986779;28;20212;-85
2023/12/23 02:04:50;;;;;;;0.20;0.20;;;;;;;;;;20960644;28;20670;-84
2023/12/23 02:15:09;;;;;;;0.67;0.37;;;9.30;99.90;;;;;;21005504;28;20217;-83
2023/12/23 02:25:11;;;;;;;0.27;0.27;;;;;;;;;;20989103;28;20220;-83
2023/12/23 02:35:13;;;;;;;2.10;0.40;;;;;;;;;;20982637;28;20216;-85
2023/12/23 02:45:15;;;;;;;0.50;0.40;;;;;;;;;;21025698;28;20219;-83
2023/12/23 02:55:18;;;;;;;1.23;0.70;;;;;;;;;;20999032;28;20360;-84
2023/12/23 03:05:20;;;;;;;0.57;0.50;;;;;;;;;;21009705;28;20212;-83
2023/12/23 03:15:22;;;;;;;0.87;0.33;;;;;;;;;;21041009;28;20246;-84
2023/12/23 03:25:24;;;;;;;0.57;0.30;;;;;;;;;;20993175;28;20213;-84
2023/12/23 03:35:26;;;;;;;0.43;0.27;;;;;;;;;;20998332;28;20224;-83
2023/12/23 03:45:27;;;;;;;0.30;0.23;;;;;;;;;;20990729;28;20754;-84
2023/12/23 03:55:32;;;;;;;0.57;0.20;;;;;;;;;;21010507;28;20293;-84
2023/12/23 04:05:34;;;;;;;0.80;0.30;;;;;;;;;;20991067;28;20216;-83
2023/12/23 04:15:35;;;;;;;1.83;0.40;;;;;;;;;;21030016;28;20243;-82
2023/12/23 04:25:37;;;;;;;0.53;0.37;;;;;;;;;;21014744;28;20746;-83
2023/12/23 04:35:39;;;;;;;0.77;0.47;;;;;;;;;;21025285;28;20272;-83
2023/12/23 04:45:41;;;;;;;1.03;0.30;;;;;;;;;;20971613;28;20232;-83
2023/12/23 04:55:43;;;;;;;0.30;0.20;;;;;;;;;;21002751;28;20301;-82
2023/12/23 05:05:45;;;;;;;0.40;0.33;;;;;;;;;;20998343;28;20225;-84
2023/12/23 05:15:47;;;;;;;0.83;0.40;;;;;;;;;;20999275;28;20212;-82
2023/12/23 05:25:50;;;;;;;0.93;0.50;;;;;;;;;;21037684;28;20670;-82
2023/12/23 05:35:52;;;;;;;0.97;0.67;;;;;;;;;;21012694;28;20277;-82
2023/12/23 05:45:54;;;;;;;0.57;0.30;;;;;;;;;;21001253;28;20290;-81
2023/12/23 05:55:56;;;;;;;1.73;0.40;;;;;;;;;;21034462;28;20220;-82
2023/12/23 06:05:58;;;;;;;1.27;0.50;;;;;;;;;;20987762;28;20515;-83
2023/12/23 06:16:05;;;;;;;0.73;0.70;;;9.20;99.90;;;;;;21019260;28;20208;-81
2023/12/23 06:26:09;;;;;;;1.17;0.40;;;;;;;;;;21001727;28;20213;-81
2023/12/23 06:36:11;;;;;;;0.73;0.50;;;;;;;;;;21020626;28;20205;-81
2023/12/23 06:46:13;;;;;;;0.80;0.40;;;;;;;;;;21008875;28;20282;-81
2023/12/23 06:56:15;;;;;;;1.27;0.53;;;;;;;;;;20984214;28;20217;-81
2023/12/23 07:06:17;;;;;;;0.57;0.33;;;;;;;;;;21016022;28;20235;-80
2023/12/23 07:16:19;;;;;;;0.73;0.60;;;;;;;;;;21000328;28;20213;-81
2023/12/23 07:26:22;;;;;;;1.07;0.70;;;;;;;;;;21040022;28;20197;-81
2023/12/23 07:36:23;;;;;;;0.70;0.30;;;;;;;;;;21049355;28;20220;-81
2023/12/23 07:46:25;;;;;;;0.20;0.10;;;;;;;;;;21022194;28;20665;-81
2023/12/23 07:56:27;;;;;;;0.40;0.27;;;;;;;;;;20966555;28;20233;-82
2023/12/23 08:06:29;;;;;;;0.20;0.20;;;;;;;;;;20957430;28;20227;-81
2023/12/23 08:16:30;;;;;;;1.07;0.30;;;;;;;;;;21037367;28;20237;-82
2023/12/23 08:26:33;;;;;;;1.07;0.30;;;;;;;;;;20998858;28;20201;-81
2023/12/23 08:36:35;;;;;;;0.37;0.20;;;;;;;;;;21003565;28;20729;-81
2023/12/23 08:46:37;;;;;;;1.40;0.70;;;;;;;;;;20983766;28;20303;-82
2023/12/23 08:56:39;;;;;;;0.50;0.20;;;;;;;;;;20989896;28;20294;-80
2023/12/23 09:06:40;;;;;;;0.43;0.20;;;;;;;;;;21014433;28;20243;-83
2023/12/23 09:16:43;;;;;;;0.17;0.10;;;;;;;;;;21034856;28;20731;-78
2023/12/23 09:26:44;;;;;;;0.10;0.10;;;;;;;;;;21024150;28;20751;-80
2023/12/23 09:36:46;;;;;;;3.50;0.30;;;;;;;;;;21002410;28;20249;-81
2023/12/23 09:46:49;;;;;;;0.20;0.20;;;;;;;;;;21013016;28;20233;-80
2023/12/23 09:56:50;;;;;;;0.20;0.20;;;8.90;99.90;;;;;;21005979;28;20221;-81
2023/12/23 10:06:53;;;;;;;0.00;0.00;;;;;;;;;;21014941;28;20217;-81
2023/12/23 10:16:55;;;;;;;0.10;0.10;;;;;;;;;;20992714;28;20232;-80
2023/12/23 10:26:58;;;;;;;0.10;0.10;;;9.30;99.90;;;;;;21021041;28;20316;-81
2023/12/23 10:37:02;;;;;;;0.03;0.03;;;;;;;;;;21023640;28;20282;-82
2023/12/23 10:47:06;;;;;;;0.30;0.30;;;;;;;;;;21108894;28;20256;-80
2023/12/23 10:57:10;;;;;;;0.30;0.27;;;;;;;;;;21023865;28;20221;-81
2023/12/23 11:19:49;;;;;;;0.10;0.10;;;;;;;;;;20980924;28;20278;-80
2023/12/23 11:30:17;;;;;;;0.53;0.20;;;;;;;;;;20960083;28;20286;-82
2023/12/23 11:40:19;;;;;;;0.17;0.17;;;9.10;99.90;;;;;;20968556;28;20217;-80
2023/12/23 11:50:21;;;;;;;0.10;0.10;;;;;;;;;;20979597;28;20278;-81
2023/12/23 12:00:23;;;;;;;0.10;0.10;;;;;;;;;;20210228;28;1101526;-80
2023/12/23 12:10:25;;;;;;;0.30;0.20;;;;;;;;;;19252751;30;20942;-83
2023/12/23 12:20:27;;;;;;;0.10;0.10;;;;;;;;;;19225417;30;20241;-78
2023/12/23 12:30:28;;;;;;;0.10;0.10;;;;;;;;;;19191033;30;20584;-80
2023/12/23 12:40:35;;;;;;;1.13;0.20;;;;;;;;;;19198504;30;20708;-80
2023/12/23 12:50:41;;;;;;;0.70;0.50;;;;;;;;;;19203772;30;20296;-80
2023/12/23 13:00:43;;;;;;;1.00;0.50;;;;;;;;;;19208351;30;1232014;-81
2023/12/23 13:10:45;;;;;;;0.30;0.20;;;;;;;;;;19835184;29;20275;-80
2023/12/23 13:20:47;;;;;;;0.10;0.10;;;;;;;;;;19844622;29;20230;-80
2023/12/23 13:30:48;;;;;;;0.37;0.30;;;;;;;;;;19871088;29;20774;-82
2023/12/23 13:40:50;;;;;;;0.43;0.40;;;;;;;;;;19849398;29;20226;-81
2023/12/23 13:50:53;;;;;;;0.43;0.37;;;;;;;;;;19832827;29;20230;-80
2023/12/23 14:00:55;;;;;;;0.10;0.10;;;;;;;;;;19966074;29;20225;-81
2023/12/23 14:10:56;;;;;;;0.30;0.20;;;;;;;;;;20489796;28;20311;-81
2023/12/23 14:20:58;;;;;;;4.07;0.20;;;;;;;;;;20522644;28;20300;-81
2023/12/23 14:31:00;;;;;;;0.20;0.20;;;;;;;;;;20506368;28;20279;-78
2023/12/23 14:41:04;;;;;;;0.40;0.30;;;;;;;;;;20527506;28;20256;-79
2023/12/23 14:51:06;;;;;;;0.33;0.30;;;;;;;;;;20547558;28;20229;-80
2023/12/23 15:01:08;;;;;;;0.20;0.20;;;;;;;;;;20529334;28;20223;-80
2023/12/23 15:11:10;;;;;;;0.10;0.10;;;;;;;;;;20912026;28;20268;-80
2023/12/23 15:21:13;;;;;;;0.10;0.10;;;;;;;;;;20890573;28;20280;-79
2023/12/23 15:31:18;;;;;;;0.60;0.20;;;;;;;;;;20919789;28;20226;-79
2023/12/23 15:41:20;;;;;;;0.20;0.20;;;;;;;;;;20913608;28;20233;-79
2023/12/23 15:51:22;;;;;;;0.27;0.27;;;;;;;;;;20922200;28;20225;-78
2023/12/23 16:01:24;;;;;;;0.10;0.10;;;;;;;;;;20900695;28;20231;-79
2023/12/23 16:11:26;;;;;;;1.37;0.30;;;;;;;;;;20855507;28;20226;-79
2023/12/23 16:21:27;;;;;;;0.30;0.30;;;;;;;;;;20869586;28;20230;-80
2023/12/23 16:31:33;;;;;;;1.40;0.30;;;;;;;;;;20831717;28;20235;-80
2023/12/23 16:41:35;;;;;;;0.43;0.27;;;;;;;;;;20830622;28;20214;-80
2023/12/23 16:51:37;;;;;;;0.20;0.20;;;;;;;;;;20844834;28;20253;-81
2023/12/23 17:01:38;;;;;;;0.70;0.40;;;;;;;;;;20853697;28;20225;-80
2023/12/23 17:11:40;;;;;;;0.27;0.20;;;;;;;;;;21087953;28;20238;-80
2023/12/23 17:21:42;;;;;;;0.10;0.10;;;;;;;;;;21030861;28;20216;-80
2023/12/23 17:31:43;;;;;;;0.73;0.30;;;;;;;;;;21053147;28;20212;-80
2023/12/23 17:41:45;;;;;;;0.10;0.10;;;;;;;;;;21090558;28;20525;-83
2023/12/23 17:51:47;;;;;;;0.50;0.30;;;;;;;;;;21060047;28;20790;-82
2023/12/23 18:01:50;;;;;;;0.60;0.43;;;;;;;;;;21087427;28;20293;-81
2023/12/23 18:11:52;;;;;;;0.63;0.20;;;;;;;;;;21027847;28;20246;-80
2023/12/23 18:21:54;;;;;;;0.47;0.30;;;;;;;;;;20991502;28;20722;-80
2023/12/23 18:31:56;;;;;;;0.60;0.50;;;;;;;;;;20975352;28;20288;-81
2023/12/23 18:41:58;;;;;;;0.90;0.57;;;;;;;;;;20996442;28;20217;-80
2023/12/23 18:51:59;;;;;;;1.33;0.40;;;;;;;;;;20966030;28;20239;-80
2023/12/23 19:02:01;;;;;;;0.20;0.20;;;;;;;;;;20998701;28;20237;-81
2023/12/23 19:12:03;;;;;;;0.60;0.40;;;;;;;;;;20924951;28;20240;-80
2023/12/23 19:22:05;;;;;;;0.33;0.30;;;9.40;99.90;;;;;;20949728;28;20229;-80
2023/12/23 19:32:07;;;;;;;0.70;0.60;;;;;;;;;;20959762;28;20206;-80
2023/12/23 19:42:09;;;;;;;0.27;0.23;;;;;;;;;;20980037;28;20360;-81
2023/12/23 19:52:11;;;;;;;0.33;0.20;;;;;;;;;;20937069;28;20339;-80
2023/12/23 20:02:13;;;;;;;0.30;0.23;;;;;;;;;;20957649;28;20228;-79
2023/12/23 20:12:15;;;;;;;0.23;0.20;;;;;;;;;;20979726;28;20233;-81
2023/12/23 20:22:17;;;;;;;0.73;0.30;;;;;;;;;;20990806;28;20237;-81
2023/12/23 20:32:19;;;;;;;0.10;0.10;;;;;;;;;;20968114;28;20244;-80
2023/12/23 20:42:21;;;;;;;0.30;0.30;;;;;;;;;;20995292;28;20283;-80
2023/12/23 20:52:23;;;;;;;0.43;0.30;;;;;;;;;;20988474;28;20695;-80
2023/12/23 21:02:25;;;;;;;0.20;0.20;;;;;;;;;;20968867;28;20286;-83
2023/12/23 21:12:27;;;;;;;1.10;0.30;;;;;;;;;;20959495;28;20614;-83
2023/12/23 21:22:30;;;;;;;0.20;0.10;;;;;;;;;;20981542;28;20286;-83
2023/12/23 21:32:31;;;;;;;0.20;0.20;;;;;;;;;;20952770;28;20760;-83
2023/12/23 21:42:33;;;;;;;0.30;0.30;;;;;;;;;;21021733;28;20314;-80
2023/12/23 21:52:38;;;;;;;1.20;0.30;;;;;;;;;;20977833;28;20221;-83
2023/12/23 22:02:39;;;;;;;0.43;0.20;;;;;;;;;;20975063;28;20208;-83
2023/12/23 22:12:41;;;;;;;1.13;0.40;;;;;;;;;;20971150;28;20662;-81
2023/12/23 22:22:43;;;;;;;0.20;0.13;;;;;;;;;;20977916;28;20271;-83
2023/12/23 22:32:44;;;;;;;0.53;0.20;;;;;;;;;;20957859;28;20243;-84
2023/12/23 22:42:46;;;;;;;0.20;0.20;;;;;;;;;;20936016;28;20229;-83
2023/12/23 22:52:48;;;;;;;0.40;0.27;;;;;;;;;;20969811;28;20217;-81
2023/12/23 23:02:50;;;;;;;0.47;0.37;;;;;;;;;;20984419;28;20558;-82
2023/12/23 23:12:52;;;;;;;0.77;0.50;;;;;;;;;;20974901;28;20249;-84
2023/12/23 23:22:54;;;;;;;0.43;0.23;;;;;;;;;;20980854;28;20235;-83
2023/12/23 23:32:56;;;;;;;1.03;0.40;;;;;;;;;;21000686;28;20223;-83
2023/12/23 23:42:58;;;;;;;0.40;0.20;;;;;;;;;;20990723;28;20278;-82
2023/12/23 23:52:59;;;;;;;0.40;0.30;;;;;;;;;;20984971;28;20925;-83
